createdAt,value
2018-05-24T00:00:00.888Z,1020.55
2018-05-24T00:01:00.876Z,1020.53
2018-05-24T00:02:00.866Z,1020.52
2018-05-24T00:03:00.808Z,1020.5
2018-05-24T00:04:10.823Z,1020.53
2018-05-24T00:05:01.010Z,1020.52
2018-05-24T00:06:01.700Z,1020.5
2018-05-24T00:07:00.903Z,1020.55
2018-05-24T00:08:00.847Z,1020.6
2018-05-24T00:09:00.844Z,1020.62
2018-05-24T00:10:00.872Z,1020.59
2018-05-24T00:11:00.843Z,1020.59
2018-05-24T00:12:00.997Z,1020.64
2018-05-24T00:13:00.916Z,1020.55
2018-05-24T00:14:00.836Z,1020.55
2018-05-24T00:15:00.940Z,1020.58
2018-05-24T00:16:00.777Z,1020.56
2018-05-24T00:17:00.939Z,1020.6
2018-05-24T00:18:00.858Z,1020.56
2018-05-24T00:19:00.978Z,1020.58
2018-05-24T00:20:00.963Z,1020.57
2018-05-24T00:21:00.759Z,1020.59
2018-05-24T00:22:00.761Z,1020.57
2018-05-24T00:23:00.948Z,1020.62
2018-05-24T00:24:00.883Z,1020.59
2018-05-24T00:25:10.961Z,1020.62
2018-05-24T00:26:00.961Z,1020.58
2018-05-24T00:27:00.903Z,1020.57
2018-05-24T00:28:00.988Z,1020.56
2018-05-24T00:29:01.024Z,1020.54
2018-05-24T00:30:00.744Z,1020.57
2018-05-24T00:31:00.967Z,1020.53
2018-05-24T00:32:01.025Z,1020.52
2018-05-24T00:33:00.880Z,1020.51
2018-05-24T00:34:00.863Z,1020.52
2018-05-24T00:35:00.996Z,1020.47
2018-05-24T00:36:01.106Z,1020.44
2018-05-24T00:37:00.804Z,1020.46
2018-05-24T00:38:00.879Z,1020.4
2018-05-24T00:39:00.931Z,1020.41
2018-05-24T00:40:00.966Z,1020.43
2018-05-24T00:41:00.921Z,1020.43
2018-05-24T00:42:00.972Z,1020.37
2018-05-24T00:43:00.837Z,1020.4
2018-05-24T00:44:00.841Z,1020.37
2018-05-24T00:45:00.985Z,1020.4
2018-05-24T00:46:00.808Z,1020.4
2018-05-24T00:47:00.775Z,1020.39
2018-05-24T00:48:00.915Z,1020.39
2018-05-24T00:49:00.759Z,1020.33
2018-05-24T00:50:01.728Z,1020.35
2018-05-24T00:51:00.859Z,1020.32
2018-05-24T00:52:01.024Z,1020.33
2018-05-24T00:53:01.991Z,1020.37
2018-05-24T00:54:00.329Z,1020.36
2018-05-24T00:55:00.084Z,1020.35
2018-05-24T00:56:00.283Z,1020.33
2018-05-24T00:57:00.267Z,1020.32
2018-05-24T00:58:00.727Z,1020.33
2018-05-24T00:59:00.202Z,1020.38
2018-05-24T01:00:00.158Z,1020.39
2018-05-24T01:01:00.591Z,1020.39
2018-05-24T01:02:00.172Z,1020.43
2018-05-24T01:03:00.248Z,1020.37
2018-05-24T01:04:10.101Z,1020.4
2018-05-24T01:05:00.605Z,1020.42
2018-05-24T01:06:00.239Z,1020.41
2018-05-24T01:07:00.244Z,1020.4
2018-05-24T01:08:00.225Z,1020.41
2018-05-24T01:09:00.088Z,1020.39
2018-05-24T01:10:00.203Z,1020.41
2018-05-24T01:11:00.193Z,1020.41
2018-05-24T01:12:00.229Z,1020.41
2018-05-24T01:13:00.125Z,1020.45
2018-05-24T01:14:00.159Z,1020.44
2018-05-24T01:15:00.143Z,1020.46
2018-05-24T01:16:00.011Z,1020.48
2018-05-24T01:17:00.209Z,1020.48
2018-05-24T01:18:00.132Z,1020.47
2018-05-24T01:19:01.028Z,1020.47
2018-05-24T01:20:00.673Z,1020.48
2018-05-24T01:21:00.230Z,1020.44
2018-05-24T01:22:00.184Z,1020.44
2018-05-24T01:23:00.237Z,1020.47
2018-05-24T01:24:00.255Z,1020.46
2018-05-24T01:25:00.111Z,1020.49
2018-05-24T01:26:00.619Z,1020.47
2018-05-24T01:27:00.176Z,1020.47
2018-05-24T01:28:00.222Z,1020.43
2018-05-24T01:29:00.610Z,1020.48
2018-05-24T01:30:00.265Z,1020.42
2018-05-24T01:31:00.167Z,1020.46
2018-05-24T01:32:00.268Z,1020.45
2018-05-24T01:33:00.590Z,1020.44
2018-05-24T01:34:00.057Z,1020.48
2018-05-24T01:35:00.154Z,1020.45
2018-05-24T01:36:00.320Z,1020.47
2018-05-24T01:37:00.286Z,1020.46
2018-05-24T01:38:01.410Z,1020.41
2018-05-24T01:39:00.214Z,1020.44
2018-05-24T01:40:00.285Z,1020.42
2018-05-24T01:41:00.275Z,1020.45
2018-05-24T01:42:00.311Z,1020.39
2018-05-24T01:43:00.107Z,1020.46
2018-05-24T01:44:00.248Z,1020.47
2018-05-24T01:45:00.131Z,1020.45
2018-05-24T01:46:00.163Z,1020.47
2018-05-24T01:47:00.292Z,1020.47
2018-05-24T01:48:00.190Z,1020.47
2018-05-24T01:49:00.147Z,1020.43
2018-05-24T01:50:00.661Z,1020.45
2018-05-24T01:51:00.322Z,1020.4
2018-05-24T01:52:00.073Z,1020.38
2018-05-24T01:53:00.339Z,1020.41
2018-05-24T01:54:01.382Z,1020.44
2018-05-24T01:55:00.242Z,1020.42
2018-05-24T01:56:00.207Z,1020.42
2018-05-24T01:57:00.118Z,1020.4
2018-05-24T01:58:00.023Z,1020.36
2018-05-24T01:59:00.289Z,1020.34
2018-05-24T02:00:00.171Z,1020.35
2018-05-24T02:01:10.086Z,1020.33
2018-05-24T02:02:00.569Z,1020.28
2018-05-24T02:03:00.214Z,1020.31
2018-05-24T02:04:00.345Z,1020.27
2018-05-24T02:05:00.303Z,1020.27
2018-05-24T02:06:00.074Z,1020.27
2018-05-24T02:07:00.320Z,1020.26
2018-05-24T02:08:00.191Z,1020.23
2018-05-24T02:09:00.271Z,1020.28
2018-05-24T02:10:00.182Z,1020.27
2018-05-24T02:11:00.118Z,1020.29
2018-05-24T02:12:00.353Z,1020.3
2018-05-24T02:13:00.171Z,1020.32
2018-05-24T02:14:00.248Z,1020.29
2018-05-24T02:15:00.286Z,1020.29
2018-05-24T02:16:00.217Z,1020.3
2018-05-24T02:17:00.175Z,1020.29
2018-05-24T02:18:00.141Z,1020.24
2018-05-24T02:19:00.056Z,1020.27
2018-05-24T02:20:00.335Z,1020.26
2018-05-24T02:21:00.117Z,1020.24
2018-05-24T02:22:00.059Z,1020.24
2018-05-24T02:23:00.254Z,1020.27
2018-05-24T02:24:00.080Z,1020.26
2018-05-24T02:25:00.086Z,1020.25
2018-05-24T02:26:00.227Z,1020.26
2018-05-24T02:27:00.293Z,1020.27
2018-05-24T02:28:00.279Z,1020.23
2018-05-24T02:29:00.331Z,1020.22
2018-05-24T02:30:00.279Z,1020.24
2018-05-24T02:31:00.184Z,1020.26
2018-05-24T02:32:00.071Z,1020.28
2018-05-24T02:33:00.055Z,1020.31
2018-05-24T02:34:00.212Z,1020.32
2018-05-24T02:35:00.205Z,1020.32
2018-05-24T02:36:01.321Z,1020.4
2018-05-24T02:37:00.201Z,1020.41
2018-05-24T02:38:00.271Z,1020.44
2018-05-24T02:39:00.116Z,1020.44
2018-05-24T02:40:00.233Z,1020.49
2018-05-24T02:41:00.314Z,1020.52
2018-05-24T02:42:00.081Z,1020.53
2018-05-24T02:43:00.199Z,1020.51
2018-05-24T02:44:00.271Z,1020.5
2018-05-24T02:45:00.257Z,1020.57
2018-05-24T02:46:00.092Z,1020.56
2018-05-24T02:47:00.284Z,1020.53
2018-05-24T02:48:00.269Z,1020.62
2018-05-24T02:49:00.104Z,1020.64
2018-05-24T02:50:00.328Z,1020.64
2018-05-24T02:51:00.043Z,1020.62
2018-05-24T02:52:00.319Z,1020.59
2018-05-24T02:53:00.291Z,1020.6
2018-05-24T02:54:00.727Z,1020.61
2018-05-24T02:55:00.244Z,1020.54
2018-05-24T02:56:00.136Z,1020.59
2018-05-24T02:57:00.249Z,1020.55
2018-05-24T02:58:00.161Z,1020.59
2018-05-24T02:59:00.283Z,1020.58
2018-05-24T03:00:00.223Z,1020.58
2018-05-24T03:01:00.249Z,1020.56
2018-05-24T03:02:00.064Z,1020.59
2018-05-24T03:03:00.286Z,1020.54
2018-05-24T03:04:00.096Z,1020.56
2018-05-24T03:05:00.299Z,1020.54
2018-05-24T03:06:00.071Z,1020.51
2018-05-24T03:07:00.157Z,1020.56
2018-05-24T03:08:00.244Z,1020.55
2018-05-24T03:09:00.030Z,1020.54
2018-05-24T03:10:00.422Z,1020.53
2018-05-24T03:11:00.197Z,1020.55
2018-05-24T03:12:00.227Z,1020.54
2018-05-24T03:13:00.200Z,1020.52
2018-05-24T03:14:00.101Z,1020.53
2018-05-24T03:15:00.108Z,1020.56
2018-05-24T03:16:00.194Z,1020.51
2018-05-24T03:17:00.090Z,1020.53
2018-05-24T03:18:00.063Z,1020.5
2018-05-24T03:19:00.130Z,1020.49
2018-05-24T03:20:00.117Z,1020.43
2018-05-24T03:21:00.213Z,1020.45
2018-05-24T03:22:00.226Z,1020.41
2018-05-24T03:23:00.116Z,1020.39
2018-05-24T03:24:00.168Z,1020.42
2018-05-24T03:25:00.088Z,1020.44
2018-05-24T03:26:00.280Z,1020.4
2018-05-24T03:26:59.957Z,1020.39
2018-05-24T03:28:00.133Z,1020.43
2018-05-24T03:29:00.194Z,1020.45
2018-05-24T03:30:00.318Z,1020.44
2018-05-24T03:31:00.033Z,1020.4
2018-05-24T03:32:00.211Z,1020.43
2018-05-24T03:33:00.078Z,1020.36
2018-05-24T03:34:00.400Z,1020.38
2018-05-24T03:35:00.148Z,1020.44
2018-05-24T03:36:00.055Z,1020.44
2018-05-24T03:37:00.247Z,1020.44
2018-05-24T03:38:00.267Z,1020.44
2018-05-24T03:39:00.125Z,1020.48
2018-05-24T03:40:00.169Z,1020.46
2018-05-24T03:41:00.558Z,1020.45
2018-05-24T03:42:00.123Z,1020.43
2018-05-24T03:43:00.258Z,1020.4
2018-05-24T03:44:00.268Z,1020.46
2018-05-24T03:45:00.039Z,1020.36
2018-05-24T03:46:00.166Z,1020.34
2018-05-24T03:47:00.160Z,1020.37
2018-05-24T03:48:00.287Z,1020.34
2018-05-24T03:49:00.263Z,1020.35
2018-05-24T03:50:00.205Z,1020.37
2018-05-24T03:51:00.415Z,1020.34
2018-05-24T03:52:00.461Z,1020.35
2018-05-24T03:53:00.154Z,1020.29
2018-05-24T03:54:20.534Z,1020.36
2018-05-24T03:55:00.270Z,1020.3
2018-05-24T03:56:00.139Z,1020.3
2018-05-24T03:57:00.230Z,1020.35
2018-05-24T03:58:00.132Z,1020.32
2018-05-24T03:59:00.039Z,1020.29
2018-05-24T04:00:00.139Z,1020.29
2018-05-24T04:01:00.151Z,1020.29
2018-05-24T04:02:00.183Z,1020.3
2018-05-24T04:03:00.159Z,1020.28
2018-05-24T04:04:00.232Z,1020.26
2018-05-24T04:05:00.128Z,1020.27
2018-05-24T04:06:00.479Z,1020.26
2018-05-24T04:07:00.078Z,1020.26
2018-05-24T04:08:00.170Z,1020.23
2018-05-24T04:08:59.982Z,1020.25
2018-05-24T04:10:00.131Z,1020.29
2018-05-24T04:11:00.105Z,1020.29
2018-05-24T04:12:00.258Z,1020.3
2018-05-24T04:13:00.093Z,1020.3
2018-05-24T04:14:00.443Z,1020.33
2018-05-24T04:15:00.203Z,1020.34
2018-05-24T04:16:00.621Z,1020.38
2018-05-24T04:17:00.152Z,1020.34
2018-05-24T04:18:00.153Z,1020.35
2018-05-24T04:19:00.165Z,1020.35
2018-05-24T04:20:00.070Z,1020.33
2018-05-24T04:21:00.174Z,1020.34
2018-05-24T04:22:00.124Z,1020.34
2018-05-24T04:23:00.147Z,1020.32
2018-05-24T04:24:00.223Z,1020.33
2018-05-24T04:25:00.335Z,1020.37
2018-05-24T04:26:00.200Z,1020.36
2018-05-24T04:27:00.337Z,1020.36
2018-05-24T04:28:00.278Z,1020.37
2018-05-24T04:29:00.058Z,1020.41
2018-05-24T04:30:00.194Z,1020.43
2018-05-24T04:31:00.179Z,1020.44
2018-05-24T04:32:00.146Z,1020.44
2018-05-24T04:33:00.411Z,1020.46
2018-05-24T04:34:00.203Z,1020.47
2018-05-24T04:35:00.184Z,1020.47
2018-05-24T04:36:00.416Z,1020.5
2018-05-24T04:37:00.167Z,1020.5
2018-05-24T04:38:00.052Z,1020.52
2018-05-24T04:39:00.244Z,1020.48
2018-05-24T04:40:00.146Z,1020.5
2018-05-24T04:41:00.281Z,1020.5
2018-05-24T04:42:00.236Z,1020.49
2018-05-24T04:43:00.259Z,1020.52
2018-05-24T04:44:00.223Z,1020.47
2018-05-24T04:45:00.102Z,1020.47
2018-05-24T04:46:00.099Z,1020.5
2018-05-24T04:47:00.033Z,1020.47
2018-05-24T04:48:00.243Z,1020.5
2018-05-24T04:49:00.186Z,1020.51
2018-05-24T04:50:00.201Z,1020.56
2018-05-24T04:51:00.125Z,1020.55
2018-05-24T04:52:00.153Z,1020.56
2018-05-24T04:53:00.081Z,1020.59
2018-05-24T04:54:00.429Z,1020.55
2018-05-24T04:55:00.251Z,1020.66
2018-05-24T04:56:00.025Z,1020.64
2018-05-24T04:57:00.012Z,1020.64
2018-05-24T04:58:00.191Z,1020.64
2018-05-24T04:59:00.278Z,1020.68
2018-05-24T05:00:00.192Z,1020.62
2018-05-24T05:01:00.107Z,1020.63
2018-05-24T05:02:00.251Z,1020.62
2018-05-24T05:03:00.187Z,1020.62
2018-05-24T05:04:00.232Z,1020.65
2018-05-24T05:05:10.076Z,1020.61
2018-05-24T05:06:00.395Z,1020.65
2018-05-24T05:07:00.223Z,1020.63
2018-05-24T05:08:00.104Z,1020.65
2018-05-24T05:09:00.136Z,1020.67
2018-05-24T05:10:00.047Z,1020.7
2018-05-24T05:11:00.163Z,1020.64
2018-05-24T05:12:00.352Z,1020.71
2018-05-24T05:13:00.167Z,1020.74
2018-05-24T05:14:00.255Z,1020.73
2018-05-24T05:15:00.112Z,1020.79
2018-05-24T05:16:00.228Z,1020.78
2018-05-24T05:17:00.184Z,1020.76
2018-05-24T05:18:00.026Z,1020.79
2018-05-24T05:18:59.990Z,1020.75
2018-05-24T05:20:00.044Z,1020.78
2018-05-24T05:21:00.163Z,1020.75
2018-05-24T05:22:00.257Z,1020.79
2018-05-24T05:23:00.479Z,1020.78
2018-05-24T05:24:00.053Z,1020.83
2018-05-24T05:25:00.272Z,1020.84
2018-05-24T05:26:00.164Z,1020.8
2018-05-24T05:27:00.291Z,1020.87
2018-05-24T05:28:00.050Z,1020.83
2018-05-24T05:29:00.149Z,1020.82
2018-05-24T05:30:00.315Z,1020.82
2018-05-24T05:31:00.069Z,1020.79
2018-05-24T05:32:00.167Z,1020.77
2018-05-24T05:33:00.030Z,1020.78
2018-05-24T05:34:00.172Z,1020.8
2018-05-24T05:35:00.151Z,1020.79
2018-05-24T05:36:00.109Z,1020.81
2018-05-24T05:37:00.274Z,1020.83
2018-05-24T05:38:00.200Z,1020.84
2018-05-24T05:39:00.126Z,1020.86
2018-05-24T05:40:00.239Z,1020.9
2018-05-24T05:41:00.109Z,1020.91
2018-05-24T05:42:00.058Z,1020.93
2018-05-24T05:43:00.231Z,1020.97
2018-05-24T05:44:00.168Z,1020.98
2018-05-24T05:45:00.047Z,1020.99
2018-05-24T05:46:00.052Z,1020.95
2018-05-24T05:47:00.354Z,1021.01
2018-05-24T05:48:00.186Z,1020.97
2018-05-24T05:49:00.123Z,1020.96
2018-05-24T05:50:00.120Z,1020.97
2018-05-24T05:51:00.018Z,1021
2018-05-24T05:52:00.403Z,1020.98
2018-05-24T05:53:00.229Z,1020.96
2018-05-24T05:54:00.258Z,1020.98
2018-05-24T05:55:00.284Z,1020.96
2018-05-24T05:56:00.161Z,1020.98
2018-05-24T05:57:00.058Z,1020.96
2018-05-24T05:58:00.169Z,1020.97
2018-05-24T05:59:00.198Z,1021.02
2018-05-24T05:59:59.992Z,1021
2018-05-24T06:01:00.066Z,1020.96
2018-05-24T06:02:00.378Z,1020.97
2018-05-24T06:03:00.146Z,1020.93
2018-05-24T06:04:00.141Z,1020.95
2018-05-24T06:05:00.245Z,1020.93
2018-05-24T06:06:00.092Z,1020.95
2018-05-24T06:07:00.116Z,1020.93
2018-05-24T06:08:00.122Z,1020.98
2018-05-24T06:09:00.033Z,1020.93
2018-05-24T06:09:59.977Z,1020.99
2018-05-24T06:11:00.014Z,1020.96
2018-05-24T06:12:00.286Z,1020.97
2018-05-24T06:13:00.217Z,1020.95
2018-05-24T06:14:00.068Z,1020.93
2018-05-24T06:15:00.123Z,1020.93
2018-05-24T06:16:00.430Z,1020.93
2018-05-24T06:17:00.180Z,1020.92
2018-05-24T06:18:00.123Z,1020.95
2018-05-24T06:19:00.194Z,1020.93
2018-05-24T06:20:00.096Z,1020.93
2018-05-24T06:21:00.187Z,1020.95
2018-05-24T06:22:00.015Z,1020.93
2018-05-24T06:23:00.148Z,1020.94
2018-05-24T06:24:00.150Z,1020.93
2018-05-24T06:25:00.139Z,1020.95
2018-05-24T06:26:00.150Z,1020.98
2018-05-24T06:26:59.991Z,1020.95
2018-05-24T06:28:00.233Z,1021
2018-05-24T06:29:00.224Z,1020.98
2018-05-24T06:30:00.155Z,1021.01
2018-05-24T06:31:00.119Z,1021.01
2018-05-24T06:32:00.883Z,1021.01
2018-05-24T06:33:00.255Z,1021.01
2018-05-24T06:34:00.252Z,1021
2018-05-24T06:35:00.129Z,1020.99
2018-05-24T06:36:00.007Z,1021
2018-05-24T06:37:00.230Z,1021.02
2018-05-24T06:38:00.201Z,1021.05
2018-05-24T06:39:00.306Z,1021.12
2018-05-24T06:40:00.102Z,1021.08
2018-05-24T06:41:00.085Z,1021.12
2018-05-24T06:42:00.256Z,1021.13
2018-05-24T06:42:59.989Z,1021.19
2018-05-24T06:44:00.178Z,1021.17
2018-05-24T06:45:00.059Z,1021.2
2018-05-24T06:46:00.272Z,1021.17
2018-05-24T06:47:00.236Z,1021.23
2018-05-24T06:48:00.077Z,1021.23
2018-05-24T06:49:00.109Z,1021.2
2018-05-24T06:50:00.157Z,1021.2
2018-05-24T06:51:00.215Z,1021.18
2018-05-24T06:52:00.121Z,1021.18
2018-05-24T06:53:00.134Z,1021.25
2018-05-24T06:54:00.260Z,1021.25
2018-05-24T06:55:00.000Z,1021.24
2018-05-24T06:56:00.109Z,1021.25
2018-05-24T06:57:00.205Z,1021.27
2018-05-24T06:58:00.032Z,1021.28
2018-05-24T06:59:00.140Z,1021.28
2018-05-24T07:00:00.463Z,1021.26
2018-05-24T07:01:00.069Z,1021.25
2018-05-24T07:02:00.108Z,1021.25
2018-05-24T07:03:00.104Z,1021.26
2018-05-24T07:04:00.181Z,1021.24
2018-05-24T07:04:59.980Z,1021.27
2018-05-24T07:06:00.441Z,1021.29
2018-05-24T07:07:00.163Z,1021.28
2018-05-24T07:08:00.147Z,1021.29
2018-05-24T07:09:00.116Z,1021.3
2018-05-24T07:10:00.138Z,1021.28
2018-05-24T07:11:00.249Z,1021.28
2018-05-24T07:11:59.998Z,1021.3
2018-05-24T07:13:00.058Z,1021.26
2018-05-24T07:14:00.060Z,1021.28
2018-05-24T07:15:00.147Z,1021.3
2018-05-24T07:16:00.097Z,1021.3
2018-05-24T07:17:00.051Z,1021.3
2018-05-24T07:17:59.999Z,1021.28
2018-05-24T07:19:00.027Z,1021.31
2018-05-24T07:20:00.217Z,1021.27
2018-05-24T07:20:59.994Z,1021.28
2018-05-24T07:21:59.975Z,1021.22
2018-05-24T07:23:00.099Z,1021.19
2018-05-24T07:24:00.197Z,1021.23
2018-05-24T07:25:00.142Z,1021.21
2018-05-24T07:26:00.189Z,1021.2
2018-05-24T07:27:00.201Z,1021.19
2018-05-24T07:28:00.272Z,1021.16
2018-05-24T07:29:00.038Z,1021.15
2018-05-24T07:29:59.950Z,1021.12
2018-05-24T07:30:59.994Z,1021.11
2018-05-24T07:32:00.168Z,1021.15
2018-05-24T07:33:00.181Z,1021.18
2018-05-24T07:34:00.038Z,1021.19
2018-05-24T07:35:00.162Z,1021.16
2018-05-24T07:36:00.103Z,1021.18
2018-05-24T07:37:00.020Z,1021.19
2018-05-24T07:37:59.973Z,1021.2
2018-05-24T07:39:20.451Z,1021.2
2018-05-24T07:40:00.047Z,1021.22
2018-05-24T07:41:00.098Z,1021.2
2018-05-24T07:42:00.098Z,1021.13
2018-05-24T07:42:59.973Z,1021.18
2018-05-24T07:43:59.985Z,1021.18
2018-05-24T07:45:00.463Z,1021.16
2018-05-24T07:46:00.167Z,1021.14
2018-05-24T07:47:00.307Z,1021.15
2018-05-24T07:47:59.999Z,1021.14
2018-05-24T07:49:00.159Z,1021.15
2018-05-24T07:49:59.994Z,1021.11
2018-05-24T07:51:00.086Z,1021.18
2018-05-24T07:52:00.148Z,1021.15
2018-05-24T07:53:00.170Z,1021.11
2018-05-24T07:54:03.130Z,1021.13
2018-05-24T07:54:59.975Z,1021.19
2018-05-24T07:56:00.045Z,1021.1
2018-05-24T07:57:00.160Z,1021.12
2018-05-24T07:58:00.168Z,1021.11
2018-05-24T07:59:00.030Z,1021.13
2018-05-24T08:00:00.048Z,1021.07
2018-05-24T08:01:00.176Z,1021.07
2018-05-24T08:02:00.105Z,1021.09
2018-05-24T08:03:00.017Z,1021.13
2018-05-24T08:04:00.207Z,1021.06
2018-05-24T08:04:59.879Z,1021.06
2018-05-24T08:06:00.012Z,1021.08
2018-05-24T08:07:00.194Z,1021.13
2018-05-24T08:08:00.095Z,1021.06
2018-05-24T08:09:00.042Z,1021.09
2018-05-24T08:10:00.089Z,1021.09
2018-05-24T08:11:00.080Z,1021.08
2018-05-24T08:12:00.140Z,1021.07
2018-05-24T08:13:00.171Z,1021.11
2018-05-24T08:14:00.002Z,1021.1
2018-05-24T08:15:00.213Z,1021.05
2018-05-24T08:16:00.003Z,1021.02
2018-05-24T08:17:00.312Z,1021.02
2018-05-24T08:18:00.060Z,1021.06
2018-05-24T08:19:00.247Z,1021.07
2018-05-24T08:20:00.294Z,1021.04
2018-05-24T08:21:00.002Z,1021.06
2018-05-24T08:22:00.058Z,1021
2018-05-24T08:23:00.028Z,1021.01
2018-05-24T08:24:00.124Z,1021.06
2018-05-24T08:24:59.994Z,1021.01
2018-05-24T08:26:00.231Z,1021
2018-05-24T08:27:00.026Z,1021.03
2018-05-24T08:28:00.237Z,1021.01
2018-05-24T08:29:00.012Z,1020.99
2018-05-24T08:30:00.077Z,1021.02
2018-05-24T08:31:00.054Z,1021
2018-05-24T08:31:59.983Z,1021.04
2018-05-24T08:33:00.133Z,1021.03
2018-05-24T08:34:00.036Z,1021.05
2018-05-24T08:35:00.159Z,1021.09
2018-05-24T08:36:00.069Z,1021.06
2018-05-24T08:37:00.193Z,1021.07
2018-05-24T08:38:00.237Z,1021.09
2018-05-24T08:39:00.026Z,1021.05
2018-05-24T08:40:00.495Z,1021.06
2018-05-24T08:41:00.399Z,1021.09
2018-05-24T08:42:00.126Z,1021.08
2018-05-24T08:43:00.173Z,1021.05
2018-05-24T08:44:00.004Z,1021.05
2018-05-24T08:45:00.220Z,1021.08
2018-05-24T08:46:00.052Z,1021.1
2018-05-24T08:47:00.248Z,1021.11
2018-05-24T08:48:00.021Z,1021.11
2018-05-24T08:49:00.039Z,1021.12
2018-05-24T08:49:59.881Z,1021.12
2018-05-24T08:51:00.059Z,1021.11
2018-05-24T08:52:00.172Z,1021.08
2018-05-24T08:52:59.954Z,1021.07
2018-05-24T08:54:00.193Z,1021.04
2018-05-24T08:55:00.219Z,1021.02
2018-05-24T08:56:00.178Z,1021.03
2018-05-24T08:57:00.029Z,1021.01
2018-05-24T08:58:00.204Z,1021.02
2018-05-24T08:59:00.088Z,1021
2018-05-24T09:00:00.048Z,1020.96
2018-05-24T09:00:59.950Z,1021.02
2018-05-24T09:02:00.067Z,1020.98
2018-05-24T09:03:00.100Z,1020.98
2018-05-24T09:03:59.990Z,1021
2018-05-24T09:05:00.138Z,1020.97
2018-05-24T09:06:00.256Z,1020.96
2018-05-24T09:07:00.104Z,1020.96
2018-05-24T09:08:00.105Z,1020.98
2018-05-24T09:09:00.102Z,1020.99
2018-05-24T09:09:59.981Z,1020.97
2018-05-24T09:11:00.141Z,1020.95
2018-05-24T09:12:00.131Z,1020.95
2018-05-24T09:12:59.997Z,1020.92
2018-05-24T09:14:00.126Z,1020.94
2018-05-24T09:15:00.162Z,1020.94
2018-05-24T09:15:59.985Z,1020.96
2018-05-24T09:17:00.307Z,1020.92
2018-05-24T09:18:00.381Z,1020.9
2018-05-24T09:18:59.955Z,1020.92
2018-05-24T09:20:00.261Z,1020.92
2018-05-24T09:21:00.124Z,1020.92
2018-05-24T09:22:00.078Z,1020.9
2018-05-24T09:23:00.039Z,1020.96
2018-05-24T09:24:00.050Z,1020.95
2018-05-24T09:25:00.195Z,1020.97
2018-05-24T09:26:00.094Z,1020.96
2018-05-24T09:27:00.114Z,1020.94
2018-05-24T09:28:00.102Z,1020.98
2018-05-24T09:29:00.088Z,1021.02
2018-05-24T09:30:00.104Z,1021.01
2018-05-24T09:31:00.179Z,1021.02
2018-05-24T09:32:00.201Z,1020.99
2018-05-24T09:33:00.058Z,1021
2018-05-24T09:33:59.937Z,1020.97
2018-05-24T09:35:00.139Z,1020.97
2018-05-24T09:36:00.231Z,1020.93
2018-05-24T09:36:59.907Z,1020.97
2018-05-24T09:38:00.148Z,1021.04
2018-05-24T09:39:00.203Z,1021
2018-05-24T09:40:00.078Z,1020.98
2018-05-24T09:41:00.029Z,1021
2018-05-24T09:42:00.046Z,1021.01
2018-05-24T09:43:00.207Z,1020.99
2018-05-24T09:44:00.212Z,1020.98
2018-05-24T09:45:00.075Z,1021.03
2018-05-24T09:45:59.854Z,1020.99
2018-05-24T09:47:00.097Z,1020.98
2018-05-24T09:48:00.162Z,1021.01
2018-05-24T09:49:00.028Z,1020.98
2018-05-24T09:49:59.924Z,1020.95
2018-05-24T09:51:00.129Z,1021
2018-05-24T09:52:00.156Z,1020.97
2018-05-24T09:53:00.031Z,1020.98
2018-05-24T09:54:00.394Z,1020.93
2018-05-24T09:54:59.995Z,1020.99
2018-05-24T09:56:00.093Z,1020.96
2018-05-24T09:57:00.074Z,1020.96
2018-05-24T09:58:00.214Z,1020.97
2018-05-24T09:58:59.956Z,1020.95
2018-05-24T10:00:00.468Z,1020.96
2018-05-24T10:01:00.126Z,1020.99
2018-05-24T10:02:00.187Z,1020.96
2018-05-24T10:03:00.127Z,1020.96
2018-05-24T10:03:59.963Z,1020.98
2018-05-24T10:05:00.290Z,1020.94
2018-05-24T10:06:00.013Z,1020.95
2018-05-24T10:07:00.021Z,1020.94
2018-05-24T10:08:00.105Z,1020.96
2018-05-24T10:08:59.938Z,1020.97
2018-05-24T10:10:00.108Z,1020.95
2018-05-24T10:11:00.033Z,1020.91
2018-05-24T10:11:59.906Z,1020.92
2018-05-24T10:13:00.108Z,1020.9
2018-05-24T10:14:00.103Z,1020.91
2018-05-24T10:14:59.919Z,1020.92
2018-05-24T10:16:00.016Z,1020.86
2018-05-24T10:16:59.991Z,1020.9
2018-05-24T10:18:00.242Z,1020.86
2018-05-24T10:19:00.510Z,1020.9
2018-05-24T10:20:00.143Z,1020.88
2018-05-24T10:21:00.004Z,1020.9
2018-05-24T10:21:59.993Z,1020.87
2018-05-24T10:23:00.179Z,1020.85
2018-05-24T10:24:00.140Z,1020.85
2018-05-24T10:24:59.973Z,1020.79
2018-05-24T10:26:00.253Z,1020.81
2018-05-24T10:27:00.000Z,1020.8
2018-05-24T10:28:00.269Z,1020.84
2018-05-24T10:29:00.146Z,1020.8
2018-05-24T10:30:00.009Z,1020.8
2018-05-24T10:31:00.444Z,1020.78
2018-05-24T10:31:59.927Z,1020.8
2018-05-24T10:32:59.941Z,1020.79
2018-05-24T10:34:00.151Z,1020.77
2018-05-24T10:35:00.124Z,1020.73
2018-05-24T10:36:00.018Z,1020.71
2018-05-24T10:37:01.591Z,1020.66
2018-05-24T10:38:00.625Z,1020.7
2018-05-24T10:39:00.042Z,1020.66
2018-05-24T10:40:00.047Z,1020.65
2018-05-24T10:41:00.051Z,1020.62
2018-05-24T10:41:59.845Z,1020.64
2018-05-24T10:43:00.143Z,1020.6
2018-05-24T10:44:00.117Z,1020.58
2018-05-24T10:45:00.162Z,1020.62
2018-05-24T10:45:59.942Z,1020.58
2018-05-24T10:46:59.965Z,1020.58
2018-05-24T10:48:00.061Z,1020.54
2018-05-24T10:48:59.968Z,1020.54
2018-05-24T10:50:00.070Z,1020.53
2018-05-24T10:51:00.041Z,1020.53
2018-05-24T10:52:00.127Z,1020.56
2018-05-24T10:53:00.170Z,1020.51
2018-05-24T10:54:00.219Z,1020.52
2018-05-24T10:54:59.924Z,1020.52
2018-05-24T10:56:00.231Z,1020.5
2018-05-24T10:56:59.996Z,1020.46
2018-05-24T10:57:59.970Z,1020.48
2018-05-24T10:59:00.066Z,1020.47
2018-05-24T10:59:59.886Z,1020.44
2018-05-24T11:01:00.231Z,1020.44
2018-05-24T11:02:00.027Z,1020.42
2018-05-24T11:03:00.365Z,1020.43
2018-05-24T11:03:59.994Z,1020.42
2018-05-24T11:05:00.111Z,1020.41
2018-05-24T11:06:00.284Z,1020.4
2018-05-24T11:07:00.078Z,1020.41
2018-05-24T11:08:00.160Z,1020.38
2018-05-24T11:09:00.010Z,1020.38
2018-05-24T11:10:00.124Z,1020.32
2018-05-24T11:11:00.086Z,1020.35
2018-05-24T11:11:59.994Z,1020.29
2018-05-24T11:13:00.077Z,1020.3
2018-05-24T11:14:00.028Z,1020.29
2018-05-24T11:15:00.175Z,1020.27
2018-05-24T11:16:00.095Z,1020.27
2018-05-24T11:17:00.042Z,1020.26
2018-05-24T11:17:59.899Z,1020.23
2018-05-24T11:18:59.942Z,1020.18
2018-05-24T11:20:00.137Z,1020.17
2018-05-24T11:21:00.218Z,1020.15
2018-05-24T11:22:00.067Z,1020.16
2018-05-24T11:22:59.982Z,1020.18
2018-05-24T11:23:59.962Z,1020.18
2018-05-24T11:25:00.169Z,1020.12
2018-05-24T11:26:00.051Z,1020.14
2018-05-24T11:26:59.963Z,1020.1
2018-05-24T11:28:00.251Z,1020.17
2018-05-24T11:29:00.195Z,1020.12
2018-05-24T11:30:00.183Z,1020.13
2018-05-24T11:31:00.088Z,1020.16
2018-05-24T11:32:00.506Z,1020.14
2018-05-24T11:33:00.294Z,1020.09
2018-05-24T11:34:00.299Z,1020.05
2018-05-24T11:35:00.113Z,1019.99
2018-05-24T11:36:00.050Z,1020.03
2018-05-24T11:37:00.329Z,1020.03
2018-05-24T11:38:00.133Z,1020.09
2018-05-24T11:38:59.989Z,1020.01
2018-05-24T11:40:00.236Z,1020.03
2018-05-24T11:41:00.049Z,1020.01
2018-05-24T11:42:00.173Z,1020.01
2018-05-24T11:43:00.337Z,1020.04
2018-05-24T11:44:00.147Z,1020.03
2018-05-24T11:44:59.991Z,1020.06
2018-05-24T11:46:00.138Z,1020.05
2018-05-24T11:47:00.256Z,1020.05
2018-05-24T11:47:59.962Z,1020
2018-05-24T11:48:59.945Z,1020.02
2018-05-24T11:50:00.064Z,1019.99
2018-05-24T11:50:59.922Z,1020
2018-05-24T11:52:00.209Z,1019.97
2018-05-24T11:53:00.089Z,1020.01
2018-05-24T11:53:59.991Z,1020.03
2018-05-24T11:55:00.141Z,1020.05
2018-05-24T11:56:00.105Z,1020.08
2018-05-24T11:57:00.000Z,1020.06
2018-05-24T11:58:00.125Z,1020.05
2018-05-24T11:59:00.090Z,1020.01
2018-05-24T12:00:00.023Z,1020.03
2018-05-24T12:01:00.137Z,1020.02
2018-05-24T12:02:00.039Z,1019.99
2018-05-24T12:02:59.979Z,1019.94
2018-05-24T12:04:00.039Z,1019.93
2018-05-24T12:05:00.055Z,1019.93
2018-05-24T12:06:00.121Z,1019.9
2018-05-24T12:07:00.325Z,1019.88
2018-05-24T12:08:00.013Z,1019.87
2018-05-24T12:09:00.035Z,1019.86